Time;durP1;ratioP1;P1;durP2;ratioP2;P2;SDS_P1;SDS_P2;PMS_P1;PMS_P2;Temp;Humidity;BMP_temperature;BMP_pressure;BME280_temperature;BME280_humidity;BME280_pressure;Samples;Min_cycle;Max_cycle;Signal;HPM_P1;HPM_P2
2021/10/30 03:45:51;;;;;;;9.48;3.90;;;14.40;87.10;;;12.68;85.00;99473.19;3109053;22;20100;-90
2021/10/30 03:48:20;;;;;;;7.53;4.05;;;14.40;87.30;;;12.69;83.96;99469.38;5051664;28;20052;-88
2021/10/30 03:50:51;;;;;;;10.35;4.18;;;14.40;86.60;;;12.73;84.15;99464.28;5040320;28;20531;-90
2021/10/30 03:53:19;;;;;;;11.60;4.60;;;14.40;87.20;;;12.75;83.51;99460.28;5067795;28;20098;-91
2021/10/30 03:55:47;;;;;;;7.43;4.10;;;14.40;86.90;;;12.79;83.75;99463.38;5052039;28;20052;-90
2021/10/30 03:58:15;;;;;;;8.63;3.90;;;14.40;86.70;;;12.81;83.96;99456.66;5051839;28;20251;-89
2021/10/30 04:00:44;;;;;;;9.05;4.30;;;14.50;86.70;;;12.86;83.77;99456.81;5070125;28;20082;-90
2021/10/30 04:03:13;;;;;;;7.45;3.95;;;14.50;86.70;;;12.85;83.34;99452.41;5037154;28;20086;-90
2021/10/30 04:05:42;;;;;;;7.07;3.47;;;14.50;86.30;;;12.86;84.27;99454.06;5031659;28;20055;-89
2021/10/30 04:08:12;;;;;;;5.95;3.70;;;14.50;86.70;;;12.88;84.20;99462.03;5039305;28;20087;-89
2021/10/30 04:10:40;;;;;;;6.72;3.58;;;14.50;86.60;;;12.89;84.57;99459.09;5051514;28;20045;-90
2021/10/30 04:13:07;;;;;;;10.23;4.80;;;14.50;86.90;;;12.89;84.04;99464.56;5069709;28;20044;-90
2021/10/30 04:15:35;;;;;;;9.40;4.18;;;14.60;86.70;;;12.90;85.13;99459.91;5068131;28;20075;-88
2021/10/30 04:18:02;;;;;;;10.95;4.47;;;14.60;86.90;;;12.89;86.04;99464.56;5059583;28;20068;-89
2021/10/30 04:20:31;;;;;;;8.02;4.00;;;14.60;87.10;;;12.89;86.30;99469.19;5047968;28;20122;-88
2021/10/30 04:22:58;;;;;;;7.93;4.15;;;14.60;87.20;;;12.87;85.69;99455.75;5030627;28;20095;-89
2021/10/30 04:25:26;;;;;;;5.85;3.78;;;14.60;87.00;;;12.90;86.23;99468.13;5038110;28;20045;-89
2021/10/30 04:27:53;;;;;;;8.02;3.80;;;14.60;87.30;;;12.89;86.01;99470.00;5064628;28;20044;-90
2021/10/30 04:30:21;;;;;;;8.45;4.10;;;14.60;87.30;;;12.85;88.36;99466.06;5047896;28;20133;-90
2021/10/30 04:32:49;;;;;;;7.13;3.88;;;14.60;87.60;;;12.81;89.51;99466.72;5033563;28;20055;-90
2021/10/30 04:35:19;;;;;;;8.60;4.33;;;14.60;88.10;;;12.80;89.48;99456.88;5031260;28;20114;-90
2021/10/30 04:37:48;;;;;;;8.52;5.00;;;14.60;88.40;;;12.79;89.67;99463.38;5031478;28;20295;-89
2021/10/30 04:40:18;;;;;;;8.80;4.25;;;14.60;88.70;;;12.74;91.05;99452.31;5032577;28;20045;-90
2021/10/30 04:42:45;;;;;;;11.90;5.05;;;14.60;89.40;;;12.72;91.43;99449.81;5042877;28;20076;-90
2021/10/30 04:45:12;;;;;;;7.43;4.30;;;14.60;89.30;;;12.74;92.11;99449.56;5050906;28;20098;-91
2021/10/30 04:47:40;;;;;;;10.20;4.38;;;14.60;89.80;;;12.72;93.23;99455.28;5046217;28;20139;-91
2021/10/30 04:50:08;;;;;;;7.18;4.40;;;14.50;90.00;;;12.69;93.43;99444.81;5032056;28;20056;-90
2021/10/30 04:52:37;;;;;;;12.55;4.75;;;14.50;90.20;;;12.62;93.83;99446.75;5048042;28;20063;-90
2021/10/30 04:59:18;;;;;;;9.88;4.95;;;14.50;90.50;;;12.52;96.28;99442.63;5084574;22;20520;-85
2021/10/30 05:01:45;;;;;;;9.35;4.93;;;14.50;91.00;;;12.50;96.06;99439.28;5062487;28;20079;-85
2021/10/30 05:04:12;;;;;;;10.05;5.25;;;14.50;91.20;;;12.46;96.49;99432.63;5062031;28;20041;-85
2021/10/30 05:06:40;;;;;;;10.05;4.90;;;14.50;92.20;;;12.47;96.48;99422.53;5059840;28;20049;-86
2021/10/30 05:09:07;;;;;;;8.05;4.70;;;14.40;91.70;;;12.49;96.83;99410.34;5059642;28;20049;-85
2021/10/30 05:11:34;;;;;;;9.43;5.28;;;14.40;91.80;;;12.47;97.57;99420.66;5042100;28;20427;-86
2021/10/30 05:14:02;;;;;;;11.68;4.82;;;14.40;91.90;;;12.42;98.90;99419.66;5041993;28;20057;-85
2021/10/30 05:16:31;;;;;;;9.15;5.30;;;14.40;92.20;;;12.38;99.05;99413.81;5059557;28;20041;-85
2021/10/30 05:18:58;;;;;;;8.27;5.00;;;14.40;92.40;;;12.34;100.00;99401.69;5061091;28;20043;-86
2021/10/30 05:21:26;;;;;;;12.27;5.65;;;14.40;92.40;;;12.33;100.00;99402.72;5043362;28;20060;-86
2021/10/30 05:23:56;;;;;;;10.43;5.53;;;14.40;92.70;;;12.32;100.00;99401.06;5061987;28;20037;-85
2021/10/30 05:26:24;;;;;;;9.95;5.82;;;14.40;92.80;;;12.29;100.00;99404.22;5042313;28;20091;-84
2021/10/30 05:28:52;;;;;;;11.52;6.50;;;14.40;93.00;;;12.26;100.00;99393.75;5059140;28;20044;-85
2021/10/30 05:31:20;;;;;;;9.05;6.00;;;14.30;93.00;;;12.23;100.00;99400.50;5041828;28;20045;-86
2021/10/30 05:33:48;;;;;;;11.38;5.65;;;14.30;93.40;;;12.17;100.00;99395.13;5040662;28;20053;-84
2021/10/30 05:36:44;;;;;;;8.88;5.55;;;14.30;93.50;;;12.19;100.00;99387.53;5042476;28;20053;-85
2021/10/30 05:39:35;;;;;;;10.55;6.15;;;14.30;93.80;;;12.13;100.00;99389.28;5042591;28;20057;-85
2021/10/30 05:42:04;;;;;;;12.50;6.47;;;14.20;93.70;;;12.12;100.00;99371.22;5041339;28;20555;-84
2021/10/30 05:44:47;;;;;;;13.93;6.20;;;14.20;94.00;;;12.09;100.00;99367.06;5044951;28;20045;-84
2021/10/30 05:47:15;;;;;;;11.93;5.68;;;14.20;94.30;;;12.11;100.00;99369.56;5050979;28;20111;-85
2021/10/30 05:49:45;;;;;;;10.35;5.72;;;14.20;94.40;;;12.08;100.00;99365.38;5061666;28;20074;-86
2021/10/30 05:52:13;;;;;;;11.85;5.97;;;14.20;94.50;;;12.10;100.00;99355.06;5055795;28;20528;-85
2021/10/30 05:54:41;;;;;;;11.00;5.68;;;14.20;94.50;;;12.14;100.00;99355.47;5064339;28;20553;-86
2021/10/30 05:57:11;;;;;;;10.35;5.60;;;14.20;94.90;;;12.15;100.00;99353.56;5046751;28;20059;-86
2021/10/30 05:59:38;;;;;;;10.10;5.75;;;14.20;94.80;;;12.15;100.00;99348.13;5080897;22;20048;-80
2021/10/30 06:02:11;;;;;;;8.77;5.47;;;14.20;94.80;;;12.15;100.00;99346.25;5052914;28;20423;-79
2021/10/30 06:04:39;;;;;;;13.57;5.10;;;14.20;95.00;;;12.18;100.00;99340.31;5071240;28;20041;-80
2021/10/30 06:07:08;;;;;;;9.00;5.55;;;14.10;95.00;;;12.20;100.00;99345.56;5071260;28;20067;-79
2021/10/30 06:09:35;;;;;;;10.75;5.93;;;14.10;95.20;;;12.20;100.00;99340.94;5060429;28;20131;-80
2021/10/30 06:12:03;;;;;;;9.63;5.57;;;14.20;95.20;;;12.18;100.00;99337.59;5071854;28;20124;-80
2021/10/30 06:14:30;;;;;;;12.07;5.93;;;14.20;95.20;;;12.08;100.00;99338.09;5071659;28;20044;-80
2021/10/30 06:17:00;;;;;;;10.85;5.65;;;14.10;95.50;;;12.08;100.00;99337.28;5065400;28;20466;-79
2021/10/30 06:19:27;;;;;;;10.68;5.45;;;14.10;95.70;;;12.09;100.00;99337.06;5050423;28;20127;-80
2021/10/30 06:21:55;;;;;;;9.20;5.47;;;14.10;95.60;;;12.09;100.00;99339.78;5050237;28;20537;-80
2021/10/30 06:24:24;;;;;;;9.43;5.50;;;14.10;95.70;;;12.09;100.00;99342.50;5070780;28;20501;-79
2021/10/30 06:26:51;;;;;;;9.35;4.90;;;14.10;95.70;;;12.09;100.00;99334.34;5059333;28;20400;-81
2021/10/30 06:29:18;;;;;;;9.30;5.60;;;14.10;95.80;;;12.07;100.00;99333.72;5050505;28;20129;-81
2021/10/30 06:31:45;;;;;;;11.63;5.53;;;14.10;95.90;;;12.06;100.00;99336.66;5047213;28;20124;-80
2021/10/30 06:34:13;;;;;;;8.38;4.72;;;14.10;96.00;;;12.09;100.00;99338.97;5050155;28;20040;-80
2021/10/30 06:36:41;;;;;;;9.32;5.35;;;14.10;96.10;;;12.08;100.00;99338.09;5051209;28;20048;-79
2021/10/30 06:39:08;;;;;;;10.45;5.32;;;14.10;96.10;;;12.09;100.00;99337.06;5050566;28;20049;-79
2021/10/30 06:41:36;;;;;;;8.40;5.20;;;14.10;96.20;;;12.15;100.00;99342.66;5071298;28;20119;-80
2021/10/30 06:44:04;;;;;;;10.00;5.30;;;14.10;96.30;;;12.17;100.00;99329.66;5061301;28;20122;-79
2021/10/30 06:46:32;;;;;;;9.18;4.90;;;14.10;96.20;;;12.20;100.00;99323.75;5049317;28;20052;-80
2021/10/30 06:48:59;;;;;;;10.50;4.82;;;14.10;96.20;;;12.20;100.00;99331.91;5048696;28;20142;-80
2021/10/30 06:51:27;;;;;;;10.57;5.22;;;14.10;96.40;;;12.21;100.00;99319.97;5050390;28;20071;-83
2021/10/30 06:53:54;;;;;;;9.90;5.15;;;14.10;96.50;;;12.22;100.00;99327.06;5050623;28;20072;-81
2021/10/30 06:56:21;;;;;;;9.68;5.43;;;14.10;96.60;;;12.16;100.00;99317.88;5050493;28;20069;-81
2021/10/30 06:58:50;;;;;;;8.85;5.25;;;14.10;96.70;;;12.13;100.00;99334.72;5062988;28;20048;-83
2021/10/30 07:01:19;;;;;;;12.60;5.28;;;14.00;96.80;;;12.14;100.00;99336.38;5032046;28;20045;-82
2021/10/30 07:03:46;;;;;;;10.73;5.45;;;14.00;96.70;;;12.10;100.00;99340.63;5048384;28;20485;-83
2021/10/30 07:06:13;;;;;;;10.10;5.15;;;14.00;96.80;;;12.07;100.00;99324.69;5050540;28;20045;-84
2021/10/30 07:08:41;;;;;;;11.93;4.90;;;14.00;97.00;;;12.08;100.00;99332.66;5050087;28;20119;-82
2021/10/30 07:11:08;;;;;;;10.32;5.28;;;14.00;96.90;;;12.06;100.00;99340.22;5049986;28;20051;-84
2021/10/30 07:13:35;;;;;;;10.98;5.35;;;14.00;97.00;;;12.06;100.00;99332.03;5048777;28;20130;-85
2021/10/30 07:16:04;;;;;;;8.75;5.10;;;14.00;97.30;;;12.10;100.00;99335.97;5048310;28;20541;-86
2021/10/30 07:18:32;;;;;;;9.23;5.28;;;14.00;97.30;;;12.09;100.00;99333.50;5049661;28;20451;-85
2021/10/30 07:20:59;;;;;;;8.60;4.90;;;14.00;97.30;;;12.08;100.00;99327.19;5050265;28;20041;-84
2021/10/30 07:23:26;;;;;;;9.50;5.30;;;14.00;97.20;;;12.09;100.00;99333.50;5050450;28;20079;-84
2021/10/30 07:25:53;;;;;;;10.02;5.70;;;14.00;97.30;;;12.10;100.00;99327.81;5049454;28;20049;-83
2021/10/30 07:28:21;;;;;;;10.98;5.57;;;14.00;97.30;;;12.11;100.00;99325.94;5049242;28;20044;-84
2021/10/30 07:30:48;;;;;;;13.23;4.75;;;14.00;97.30;;;12.15;100.00;99326.28;5053888;28;20044;-84
2021/10/30 07:33:16;;;;;;;9.45;5.45;;;14.00;97.30;;;12.17;100.00;99325.03;5052936;28;20118;-84
2021/10/30 07:35:44;;;;;;;8.10;4.93;;;14.00;97.40;;;12.16;100.00;99322.53;5049988;28;20045;-85
2021/10/30 07:38:11;;;;;;;10.13;5.00;;;14.00;97.60;;;12.19;100.00;99317.47;5049715;28;20501;-84
2021/10/30 07:40:38;;;;;;;9.77;4.68;;;14.00;97.40;;;12.21;100.00;99315.34;5052127;28;20044;-84
2021/10/30 07:43:06;;;;;;;7.00;4.88;;;14.00;97.40;;;12.24;100.00;99319.50;5069476;28;20422;-83
2021/10/30 07:45:34;;;;;;;13.88;5.15;;;14.00;97.50;;;12.20;100.00;99316.38;5051838;28;20082;-84
2021/10/30 07:48:02;;;;;;;10.02;4.65;;;14.00;97.50;;;12.22;100.00;99316.16;5053479;28;20120;-85
2021/10/30 07:50:31;;;;;;;9.60;5.13;;;14.00;97.60;;;12.18;100.00;99314.94;5052249;28;20052;-85
2021/10/30 07:52:59;;;;;;;9.82;5.10;;;14.00;97.70;;;12.18;100.00;99314.94;5069541;28;20083;-86
2021/10/30 07:55:26;;;;;;;8.90;5.20;;;14.00;97.60;;;12.20;100.00;99324.56;5053399;28;20110;-86
2021/10/30 08:01:53;;;;;;;10.05;4.78;;;14.00;97.70;;;12.26;100.00;99317.38;5048259;28;20466;-86
2021/10/30 08:04:21;;;;;;;10.55;4.70;;;14.00;97.50;;;12.29;100.00;99319.66;5048589;28;20070;-85
2021/10/30 08:06:50;;;;;;;9.43;5.10;;;14.00;97.60;;;12.29;100.00;99311.47;5047925;28;20472;-85
2021/10/30 08:09:18;;;;;;;8.10;4.55;;;14.00;97.70;;;12.26;100.00;99309.19;5067633;28;20110;-85
2021/10/30 08:11:45;;;;;;;8.07;5.07;;;14.10;97.70;;;12.31;100.00;99315.63;5051325;28;20568;-85
2021/10/30 08:14:12;;;;;;;7.22;4.75;;;14.00;97.70;;;12.33;100.00;99315.41;5069072;28;20119;-85
2021/10/30 08:16:40;;;;;;;8.45;4.70;;;14.00;98.00;;;12.39;100.00;99306.31;5065655;28;20045;-86
2021/10/30 08:19:07;;;;;;;11.73;4.65;;;14.10;98.00;;;12.43;100.00;99303.97;5029686;28;20418;-85
2021/10/30 08:21:35;;;;;;;8.60;4.85;;;14.10;98.00;;;12.47;100.00;99297.84;5049014;28;20098;-85
2021/10/30 08:24:04;;;;;;;8.23;4.43;;;14.10;98.00;;;12.45;100.00;99297.25;5055849;28;20094;-85
2021/10/30 08:26:34;;;;;;;8.05;4.60;;;14.10;97.80;;;12.47;100.00;99300.59;5068631;28;20072;-85
2021/10/30 08:29:01;;;;;;;8.75;4.57;;;14.10;97.70;;;12.46;100.00;99292.63;5068003;28;20129;-85
2021/10/30 08:31:29;;;;;;;9.60;4.80;;;14.10;97.60;;;12.50;100.00;99291.94;5066950;28;20122;-85
2021/10/30 08:33:57;;;;;;;9.63;4.53;;;14.10;97.30;;;12.50;100.00;99286.47;5047150;28;20037;-86
2021/10/30 08:36:24;;;;;;;9.57;4.75;;;14.10;97.60;;;12.49;100.00;99301.19;5030926;28;20049;-85
2021/10/30 08:38:51;;;;;;;10.00;4.95;;;14.10;97.70;;;12.49;100.00;99294.91;5043616;28;20146;-85
2021/10/30 08:41:20;;;;;;;11.15;4.78;;;14.10;97.70;;;12.48;100.00;99285.03;5068496;28;20072;-85
2021/10/30 08:43:49;;;;;;;8.23;4.18;;;14.10;97.70;;;12.50;100.00;99281.00;5068602;28;20132;-85
2021/10/30 08:46:16;;;;;;;8.57;4.50;;;14.20;97.80;;;12.54;100.00;99275.13;5068755;28;20056;-85
2021/10/30 08:48:46;;;;;;;8.52;4.75;;;14.10;97.40;;;12.57;100.00;99280.13;5046910;28;20080;-85
2021/10/30 08:51:14;;;;;;;10.00;4.30;;;14.20;97.70;;;12.60;100.00;99285.09;5030722;28;20098;-85
2021/10/30 08:53:42;;;;;;;10.38;4.20;;;14.10;97.20;;;12.61;100.00;99286.78;5052821;28;20075;-86
2021/10/30 08:56:10;;;;;;;12.95;4.10;;;14.20;97.80;;;12.63;100.00;99290.13;5068540;28;20508;-85
2021/10/30 08:58:39;;;;;;;7.40;3.80;;;14.20;97.80;;;12.66;100.00;99281.47;5068138;28;20050;-85
2021/10/30 09:01:10;;;;;;;9.43;4.32;;;14.20;97.90;;;12.71;100.00;99287.91;5049190;28;20060;-85
2021/10/30 09:03:38;;;;;;;;;;;14.20;98.00;;;12.74;100.00;99294.81;5047266;28;20090;-85
2021/10/30 09:06:06;;;;;;;6.43;3.50;;;14.20;97.90;;;12.77;100.00;99290.78;5048319;28;19960;-85
2021/10/30 09:08:35;;;;;;;7.50;3.75;;;14.20;98.00;;;12.78;100.00;99301.47;5048235;28;20148;-86
2021/10/30 09:11:08;;;;;;;7.97;3.92;;;14.30;98.20;;;12.77;100.00;99294.34;5055349;28;20051;-85
2021/10/30 09:13:36;;;;;;;6.43;3.30;;;14.30;98.40;;;12.84;100.00;99292.38;5068380;28;20102;-85
2021/10/30 09:16:08;;;;;;;8.30;4.03;;;14.30;98.30;;;12.84;100.00;99291.53;5068634;28;20048;-89
2021/10/30 09:18:38;;;;;;;7.93;4.03;;;14.40;98.70;;;12.84;100.00;99297.00;5047392;28;20049;-85
2021/10/30 09:21:14;;;;;;;5.85;3.60;;;14.40;98.50;;;12.85;100.00;99288.59;5048569;28;20049;-85
2021/10/30 09:23:45;;;;;;;8.75;4.10;;;14.40;98.30;;;12.84;100.00;99281.44;5048207;28;20401;-90
2021/10/30 09:26:21;;;;;;;10.70;3.87;;;14.40;98.40;;;12.80;100.00;99285.69;5048739;28;20081;-86
2021/10/30 09:28:52;;;;;;;7.75;4.22;;;14.40;98.20;;;12.85;100.00;99287.72;5049781;28;20159;-88
2021/10/30 09:31:23;;;;;;;9.40;4.03;;;14.50;98.30;;;12.89;100.00;99289.78;5067569;28;20037;-87
2021/10/30 09:33:53;;;;;;;6.65;4.10;;;14.50;98.30;;;12.88;100.00;99282.66;5046847;28;20520;-83
2021/10/30 09:36:21;;;;;;;6.78;3.92;;;14.50;98.10;;;12.90;100.00;99268.78;5046475;28;20055;-88
2021/10/30 09:38:55;;;;;;;9.05;4.25;;;14.50;98.20;;;12.91;100.00;99270.44;5026563;28;20122;-84
2021/10/30 09:41:26;;;;;;;6.75;3.63;;;14.50;98.40;;;12.91;100.00;99276.75;5048142;28;20045;-85
2021/10/30 09:43:57;;;;;;;6.03;3.78;;;14.50;98.50;;;12.92;100.00;99269.38;5045901;28;20175;-86
2021/10/30 09:46:27;;;;;;;6.27;3.67;;;14.50;98.70;;;13.00;100.00;99270.94;5049539;28;20516;-85
2021/10/30 09:48:56;;;;;;;5.88;3.67;;;14.50;98.40;;;13.04;100.00;99269.41;5046588;28;20563;-86
2021/10/30 09:51:34;;;;;;;6.22;3.60;;;14.50;98.60;;;13.04;100.00;99269.41;5048236;28;20503;-85
2021/10/30 09:54:05;;;;;;;7.82;3.58;;;14.60;98.80;;;13.07;100.00;99280.72;5029966;28;20474;-87
2021/10/30 09:56:48;;;;;;;6.35;3.65;;;14.60;98.90;;;13.10;100.00;99271.25;5030177;28;20321;-80
2021/10/30 09:59:17;;;;;;;9.82;3.55;;;14.60;98.90;;;13.14;100.00;99277.06;5047685;28;20041;-84
2021/10/30 10:01:49;;;;;;;7.95;3.95;;;14.70;99.10;;;13.17;100.00;99280.16;5048234;28;20547;-80
2021/10/30 10:04:19;;;;;;;9.38;3.60;;;14.70;99.00;;;13.16;100.00;99278.50;5049910;28;20604;-82
2021/10/30 10:06:49;;;;;;;8.45;3.92;;;14.80;98.80;;;13.18;100.00;99270.09;5046929;28;20170;-82
2021/10/30 10:09:18;;;;;;;8.25;3.80;;;14.70;98.80;;;13.15;100.00;99265.91;5047596;28;20507;-80
2021/10/30 10:11:46;;;;;;;7.43;3.78;;;14.70;98.70;;;13.16;100.00;99258.56;5047135;28;20076;-82
2021/10/30 10:14:16;;;;;;;8.35;4.35;;;14.70;98.50;;;13.16;100.00;99261.28;5047570;28;20438;-81
2021/10/30 10:16:47;;;;;;;8.05;4.28;;;14.70;98.30;;;13.18;100.00;99254.50;5046071;28;20049;-81
2021/10/30 10:19:15;;;;;;;7.28;4.32;;;14.80;98.50;;;13.18;100.00;99254.50;5049453;28;20045;-80
2021/10/30 10:21:43;;;;;;;8.00;4.07;;;14.70;98.60;;;13.19;100.00;99256.16;5040866;28;20120;-81
2021/10/30 10:24:14;;;;;;;8.90;4.35;;;14.80;98.50;;;13.24;100.00;99253.56;5051064;28;20052;-81
2021/10/30 10:26:50;;;;;;;8.50;4.80;;;14.70;98.40;;;13.22;100.00;99244.78;5047313;28;20102;-83
2021/10/30 10:29:32;;;;;;;8.35;4.22;;;14.70;98.60;;;13.26;100.00;99240.50;5048410;28;20140;-83
2021/10/30 10:32:04;;;;;;;7.13;4.38;;;14.80;98.80;;;13.22;100.00;99233.03;5047836;28;21617;-83
2021/10/30 10:34:34;;;;;;;8.52;4.50;;;14.80;98.80;;;13.22;100.00;99244.78;5054787;28;20473;-83
2021/10/30 10:37:25;;;;;;;9.50;4.68;;;14.80;98.70;;;13.23;100.00;99234.69;5050960;28;20088;-82
2021/10/30 10:39:57;;;;;;;7.95;4.55;;;14.80;98.40;;;13.23;100.00;99246.47;5050390;28;20103;-82
2021/10/30 10:42:45;;;;;;;10.20;4.53;;;14.80;98.80;;;13.20;100.00;99235.16;5051199;28;20049;-82
2021/10/30 10:45:14;;;;;;;8.82;4.80;;;14.80;98.60;;;13.19;100.00;99238.94;5051016;28;20132;-82
2021/10/30 10:48:01;;;;;;;8.57;4.15;;;14.80;98.50;;;13.14;100.00;99234.19;5049632;28;20457;-82
2021/10/30 10:50:49;;;;;;;8.18;4.38;;;14.80;98.10;;;13.14;100.00;99247.03;5061485;28;20127;-82
2021/10/30 10:53:27;;;;;;;9.23;4.40;;;14.70;98.10;;;13.11;100.00;99230.00;5052921;28;20055;-83
2021/10/30 10:56:17;;;;;;;9.23;4.72;;;14.70;98.30;;;13.07;100.00;99223.34;5070907;28;20071;-83
2021/10/30 10:59:15;;;;;;;10.02;4.45;;;14.70;98.10;;;13.03;100.00;99213.13;5070271;28;20102;-83
2021/10/30 11:02:20;;;;;;;9.45;4.95;;;14.70;97.80;;;12.97;100.00;99211.34;5049521;28;20048;-81
2021/10/30 11:05:29;;;;;;;8.82;4.50;;;14.60;97.80;;;12.93;100.00;99212.84;5049897;28;20102;-81
2021/10/30 11:08:32;;;;;;;10.20;4.88;;;14.60;97.80;;;12.87;100.00;99209.16;5064699;28;20059;-80
2021/10/30 11:11:24;;;;;;;8.65;4.70;;;14.60;98.00;;;12.85;100.00;99203.94;5030603;28;20049;-83
2021/10/30 11:13:59;;;;;;;7.07;4.63;;;14.60;97.90;;;12.85;100.00;99203.09;5030539;28;20041;-83
2021/10/30 11:16:33;;;;;;;10.25;5.10;;;14.60;98.00;;;12.78;100.00;99194.19;5013911;28;20077;-83
2021/10/30 11:19:06;;;;;;;9.18;4.63;;;14.60;97.60;;;12.77;100.00;99192.50;5030677;28;20073;-83
2021/10/30 11:21:40;;;;;;;8.55;5.20;;;14.50;97.70;;;12.75;100.00;99190.00;5053463;28;20044;-80
2021/10/30 11:24:17;;;;;;;10.38;5.10;;;14.50;97.00;;;12.71;100.00;99183.34;5070184;28;20048;-81
2021/10/30 11:26:54;;;;;;;8.88;5.18;;;14.40;96.70;;;12.74;100.00;99182.03;5070450;28;20051;-80
2021/10/30 11:29:21;;;;;;;9.82;5.05;;;14.40;97.60;;;12.72;100.00;99179.56;5069698;28;20044;-80
2021/10/30 11:31:54;;;;;;;10.13;4.93;;;14.40;97.50;;;12.71;100.00;99177.88;5064868;28;20572;-81
2021/10/30 11:34:22;;;;;;;10.30;5.00;;;14.40;97.70;;;12.67;100.00;99165.75;5049115;28;20132;-81
2021/10/30 11:36:55;;;;;;;8.02;4.95;;;14.40;97.50;;;12.69;100.00;99169.91;5050149;28;20052;-81
2021/10/30 11:39:23;;;;;;;8.73;5.32;;;14.40;97.70;;;12.64;100.00;99169.81;5059706;28;20496;-81
2021/10/30 11:41:51;;;;;;;10.40;5.40;;;14.40;97.40;;;12.63;100.00;99167.28;5070064;28;20356;-81
2021/10/30 11:44:21;;;;;;;10.23;5.80;;;14.40;97.50;;;12.66;100.00;99162.22;5065215;28;20091;-80
2021/10/30 11:46:50;;;;;;;12.05;5.70;;;14.40;97.50;;;12.66;100.00;99175.00;5033561;28;20049;-81
2021/10/30 11:49:25;;;;;;;10.23;5.38;;;14.40;97.40;;;12.66;100.00;99166.81;5030720;28;20715;-80
2021/10/30 11:52:02;;;;;;;13.27;5.85;;;14.40;97.10;;;12.63;100.00;99165.41;5050093;28;20132;-81
2021/10/30 11:54:30;;;;;;;11.43;5.60;;;14.40;97.40;;;12.66;100.00;99167.66;5052289;28;20041;-83
2021/10/30 11:56:58;;;;;;;10.55;5.20;;;14.40;97.30;;;12.62;100.00;99163.75;5069651;28;20051;-80
2021/10/30 11:59:25;;;;;;;9.02;5.10;;;14.40;97.40;;;12.69;100.00;99163.63;5069182;28;20086;-78
2021/10/30 12:01:52;;;;;;;9.98;5.32;;;14.40;97.40;;;12.68;100.00;99151.06;5063707;28;20072;-81
2021/10/30 12:14:57;;;;;;;8.18;5.25;;;14.40;96.90;;;12.72;100.00;99141.34;5030392;28;20068;-90
2021/10/30 12:18:00;;;;;;;;;;;;;;;;;;;;;
2021/10/30 12:20:57;;;;;;;8.48;4.85;;;14.30;97.50;;;12.76;100.00;99142.53;5036784;28;20127;-89
2021/10/30 12:24:14;;;;;;;;;;;;;;;;;;;;;
2021/10/30 12:27:07;;;;;;;7.90;4.93;;;14.40;97.70;;;12.72;100.00;99130.44;4996062;28;20045;-95
2021/10/30 12:51:16;;;;;;;8.93;4.50;;;14.40;97.80;;;13.03;100.00;99110.19;5031324;28;20053;-91
2021/10/30 13:45:18;;;;;;;6.60;3.53;;;14.90;96.40;;;13.47;98.25;99050.56;3359717;22;20057;-94
2021/10/30 13:47:46;;;;;;;10.48;4.25;;;15.00;95.80;;;13.51;99.22;99050.94;5045068;28;20501;-92
2021/10/30 13:50:18;;;;;;;13.32;4.43;;;15.00;96.20;;;13.52;98.42;99044.41;5040876;28;20053;-91
2021/10/30 13:52:45;;;;;;;7.78;3.92;;;15.00;96.20;;;13.54;98.08;99047.72;5010515;28;20080;-92
2021/10/30 13:55:13;;;;;;;7.25;3.50;;;15.00;96.00;;;13.58;97.98;99045.34;5032983;28;20152;-92
2021/10/30 13:57:40;;;;;;;13.52;3.50;;;15.00;95.90;;;13.66;97.89;99051.25;5052702;28;20122;-92
2021/10/30 14:00:10;;;;;;;7.05;3.50;;;15.00;95.70;;;13.73;96.51;99053.03;5051682;28;20049;-92
2021/10/30 14:02:38;;;;;;;5.60;3.03;;;15.00;95.70;;;13.79;97.13;99041.97;5045819;28;20041;-91
2021/10/30 14:05:08;;;;;;;8.40;3.50;;;15.10;95.60;;;13.80;96.67;99045.53;5035186;28;20052;-92
2021/10/30 14:07:36;;;;;;;6.95;3.50;;;15.10;95.40;;;13.83;96.21;99047.78;5049631;28;20056;-92
2021/10/30 14:10:04;;;;;;;7.32;2.97;;;15.00;94.90;;;13.81;96.38;99056.22;5028636;28;20127;-92
2021/10/30 14:12:41;;;;;;;7.63;3.63;;;15.10;95.30;;;13.82;96.85;99055.16;5014896;28;20037;-94
2021/10/30 14:15:11;;;;;;;9.43;3.35;;;15.10;95.40;;;13.87;95.05;99059.91;5015117;28;20049;-93
2021/10/30 14:21:55;;;;;;;6.65;3.15;;;15.10;94.60;;;13.78;94.17;99072.28;4910507;29;20051;-94
2021/10/30 14:24:23;;;;;;;8.15;3.67;;;15.10;94.30;;;13.74;95.65;99066.47;4973771;28;20042;-92
2021/10/30 14:27:03;;;;;;;8.27;4.25;;;15.20;94.70;;;13.74;96.35;99066.47;5044531;28;20052;-94
2021/10/30 14:29:33;;;;;;;6.53;3.47;;;15.20;94.70;;;13.73;96.68;99070.28;5050355;28;20824;-91
2021/10/30 14:32:05;;;;;;;6.25;3.50;;;15.20;94.80;;;13.73;96.09;99061.22;5052615;28;20039;-94
2021/10/30 14:34:33;;;;;;;5.82;3.53;;;15.20;94.50;;;13.76;95.21;99058.84;5041915;28;20045;-90
2021/10/30 14:37:01;;;;;;;8.05;3.63;;;15.20;93.80;;;13.73;95.60;99072.16;5031777;28;20102;-91
2021/10/30 14:39:28;;;;;;;8.20;4.10;;;15.20;94.30;;;13.69;95.32;99060.91;5038015;28;20053;-91
2021/10/30 15:15:41;;;;;;;7.40;3.70;;;15.10;94.20;;;13.51;97.48;99094.66;5046258;28;20057;-87
2021/10/30 15:18:09;;;;;;;6.07;3.25;;;15.10;94.30;;;13.49;96.43;99091.34;5045521;28;20049;-86
2021/10/30 15:20:37;;;;;;;5.57;3.25;;;15.10;94.00;;;13.45;96.12;99093.72;5021936;28;20057;-87
2021/10/30 15:23:04;;;;;;;6.15;3.13;;;15.10;93.70;;;13.42;95.54;99098.81;5043010;28;20914;-87
2021/10/30 15:25:32;;;;;;;6.82;3.20;;;15.00;93.60;;;13.42;96.74;99104.28;5059273;28;20067;-87
2021/10/30 15:27:59;;;;;;;5.82;3.25;;;15.10;94.10;;;13.44;96.09;99092.06;5037501;28;20139;-87
2021/10/30 15:30:27;;;;;;;7.15;3.00;;;15.10;93.80;;;13.39;97.17;99091.94;5026170;28;20134;-88
2021/10/30 15:32:57;;;;;;;6.45;3.55;;;15.00;94.00;;;13.36;96.06;99088.84;5028576;28;20049;-86
2021/10/30 15:35:25;;;;;;;6.47;3.33;;;15.10;93.70;;;13.33;97.24;99086.59;5028127;28;20058;-87
2021/10/30 15:37:52;;;;;;;7.82;3.38;;;15.00;94.00;;;13.29;97.67;99092.50;5025863;28;20136;-87
2021/10/30 15:40:19;;;;;;;5.75;3.30;;;15.00;94.00;;;13.29;97.27;99097.16;5009199;28;20124;-87
2021/10/30 15:42:47;;;;;;;6.00;3.55;;;15.00;93.80;;;13.27;97.32;99100.13;5027642;28;20124;-87
2021/10/30 15:45:17;;;;;;;6.30;3.35;;;15.00;94.20;;;13.25;97.69;99090.47;5026171;28;20124;-87
2021/10/30 15:47:48;;;;;;;8.20;3.38;;;15.00;94.10;;;13.24;97.74;99113.41;5033299;28;20057;-87
2021/10/30 15:50:32;;;;;;;5.50;2.93;;;15.00;94.20;;;13.20;97.83;99104.84;5025119;28;20060;-87
2021/10/30 15:52:59;;;;;;;5.40;2.95;;;15.00;94.00;;;13.20;97.83;99093.94;5038313;28;20552;-87
2021/10/30 15:55:29;;;;;;;4.75;2.90;;;15.00;94.20;;;13.19;97.92;99102.34;5046212;28;20115;-87
2021/10/30 15:57:58;;;;;;;5.82;3.33;;;14.90;94.20;;;13.15;98.10;99096.53;5047102;28;20060;-87
2021/10/30 16:00:26;;;;;;;5.53;3.22;;;15.00;94.20;;;13.13;99.24;99095.13;5046018;28;20549;-87
2021/10/30 16:02:53;;;;;;;5.72;3.17;;;15.00;94.40;;;13.09;98.75;99106.50;5045885;28;20064;-87
2021/10/30 16:05:21;;;;;;;7.93;3.40;;;14.90;94.40;;;13.08;97.77;99099.38;5030497;28;20464;-87
2021/10/30 16:07:53;;;;;;;7.45;3.38;;;14.90;93.70;;;13.08;98.44;99106.75;5046553;28;20056;-87
2021/10/30 16:10:20;;;;;;;7.22;3.60;;;14.90;94.30;;;13.02;98.00;99102.22;5032686;28;20045;-87
2021/10/30 16:12:48;;;;;;;7.00;3.70;;;14.80;94.20;;;13.04;98.49;99116.47;5034810;28;20052;-87
2021/10/30 16:15:16;;;;;;;6.90;3.58;;;14.80;94.40;;;13.04;98.18;99113.72;5025930;28;20053;-87
2021/10/30 16:17:43;;;;;;;6.80;3.78;;;14.80;94.50;;;13.06;98.61;99114.31;5038522;28;20045;-88
2021/10/30 16:20:11;;;;;;;6.38;3.67;;;14.80;94.60;;;13.04;98.46;99116.47;5025728;28;20045;-88
2021/10/30 16:22:43;;;;;;;7.85;4.10;;;14.80;94.80;;;13.03;98.36;99126.56;5042056;28;20132;-88
2021/10/30 16:25:12;;;;;;;6.60;3.55;;;14.80;94.60;;;13.05;98.93;99123.59;5043673;28;20555;-88